createdAt,value
2023-01-22T00:05:05.990Z,1024.01
2023-01-22T00:11:28.982Z,1024.01
2023-01-22T00:17:49.037Z,1023.95
2023-01-22T00:24:11.969Z,1023.87
2023-01-22T00:30:31.979Z,1023.83
2023-01-22T00:36:56.030Z,1023.73
2023-01-22T00:43:15.044Z,1023.72
2023-01-22T00:49:37.977Z,1023.7
2023-01-22T00:55:58.023Z,1023.62
2023-01-22T01:02:21.109Z,1023.6
2023-01-22T01:08:40.992Z,1023.54
2023-01-22T01:15:04.156Z,1023.52
2023-01-22T01:21:23.982Z,1023.54
2023-01-22T01:27:46.974Z,1023.56
2023-01-22T01:34:07.146Z,1023.56
2023-01-22T01:40:29.975Z,1023.54
2023-01-22T01:46:50.075Z,1023.5
2023-01-22T01:53:13.144Z,1023.52
2023-01-22T01:59:33.030Z,1023.52
2023-01-22T02:05:56.009Z,1023.5
2023-01-22T02:12:16.132Z,1023.39
2023-01-22T02:18:39.027Z,1023.41
2023-01-22T02:24:58.991Z,1023.39
2023-01-22T02:31:22.156Z,1023.37
2023-01-22T02:37:42.026Z,1023.35
2023-01-22T02:44:05.039Z,1023.31
2023-01-22T02:50:25.102Z,1023.33
2023-01-22T02:56:48.063Z,1023.35
2023-01-22T03:03:08.021Z,1023.33
2023-01-22T03:09:31.094Z,1023.27
2023-01-22T03:15:51.017Z,1023.23
2023-01-22T03:22:14.065Z,1023.18
2023-01-22T03:28:34.105Z,1023.14
2023-01-22T03:34:56.982Z,1023.06
2023-01-22T03:41:17.011Z,1023.08
2023-01-22T03:47:45.937Z,1023.08
2023-01-22T03:54:00.195Z,1023.12
2023-01-22T04:00:22.986Z,1023.08
2023-01-22T04:06:42.978Z,1023.1
2023-01-22T04:22:54.088Z,1023.08
2023-01-22T04:29:13.977Z,1023.1
2023-01-22T04:35:37.053Z,1023.12
2023-01-22T04:41:57.104Z,1023.16
2023-01-22T04:48:20.029Z,1023.16
2023-01-22T04:54:40.083Z,1023.14
2023-01-22T05:01:03.143Z,1023.14
2023-01-22T05:07:22.974Z,1023.1
2023-01-22T05:13:46.098Z,1023.06
2023-01-22T05:20:06.132Z,1023.12
2023-01-22T05:26:28.999Z,1023.14
2023-01-22T05:32:49.018Z,1023.12
2023-01-22T05:39:17.941Z,1023.12
2023-01-22T05:45:32.097Z,1023.12
2023-01-22T05:51:54.980Z,1023.16
2023-01-22T05:58:15.028Z,1023.22
2023-01-22T06:04:38.145Z,1023.18
2023-01-22T06:10:57.986Z,1023.2
2023-01-22T06:17:20.981Z,1023.2
2023-01-22T06:23:41.111Z,1023.22
2023-01-22T06:30:03.987Z,1023.16
2023-01-22T06:36:24.010Z,1023.12
2023-01-22T06:42:47.142Z,1023.12
2023-01-22T06:49:07.027Z,1023.22
2023-01-22T06:55:29.988Z,1023.27
2023-01-22T07:01:50.191Z,1023.31
2023-01-22T07:08:13.054Z,1023.5
2023-01-22T07:14:37.280Z,1023.54
2023-01-22T07:20:56.148Z,1023.64
2023-01-22T07:27:16.035Z,1023.75
2023-01-22T07:33:39.020Z,1023.81
2023-01-22T07:39:59.149Z,1023.83
2023-01-22T07:46:22.140Z,1023.85
2023-01-22T07:52:41.982Z,1023.83
2023-01-22T07:59:05.244Z,1023.87
2023-01-22T08:05:25.045Z,1023.91
2023-01-22T08:11:48.000Z,1024.01
2023-01-22T08:18:09.141Z,1024.07
2023-01-22T08:24:31.983Z,1024.11
2023-01-22T08:30:52.344Z,1024.18
2023-01-22T08:37:15.161Z,1024.2
2023-01-22T08:43:35.019Z,1024.22
2023-01-22T08:49:57.999Z,1024.24
2023-01-22T08:56:18.149Z,1024.24
2023-01-22T09:02:41.029Z,1024.24
2023-01-22T09:18:48.120Z,1024.22
2023-01-22T09:25:08.005Z,1024.28
2023-01-22T09:31:31.256Z,1024.32
2023-01-22T09:37:51.136Z,1024.36
2023-01-22T09:44:14.196Z,1024.34
2023-01-22T09:50:33.982Z,1024.38
2023-01-22T09:56:57.187Z,1024.36
2023-01-22T10:03:17.012Z,1024.4
2023-01-22T10:09:40.159Z,1024.4
2023-01-22T10:16:00.112Z,1024.4
2023-01-22T10:22:23.070Z,1024.4
2023-01-22T10:28:43.127Z,1024.36
2023-01-22T10:35:06.107Z,1024.36
2023-01-22T10:41:26.035Z,1024.36
2023-01-22T10:47:48.984Z,1024.34
2023-01-22T10:54:09.137Z,1024.32
2023-01-22T11:00:42.937Z,1024.26
2023-01-22T11:06:52.257Z,1024.24
2023-01-22T11:13:15.100Z,1024.18
2023-01-22T11:19:37.410Z,1024.22
2023-01-22T11:25:57.996Z,1024.2
2023-01-22T11:32:18.123Z,1024.2
2023-01-22T11:38:40.986Z,1024.16
2023-01-22T11:45:00.971Z,1024.2
2023-01-22T11:51:24.298Z,1024.26
2023-01-22T11:57:44.135Z,1024.22
2023-01-22T12:04:07.053Z,1024.12
2023-01-22T12:10:27.159Z,1024.07
2023-01-22T12:16:50.131Z,1024.05
2023-01-22T12:23:09.991Z,1024.09
2023-01-22T12:29:33.099Z,1024.14
2023-01-22T12:35:53.161Z,1024.2
2023-01-22T12:42:16.011Z,1024.24
2023-01-22T12:48:36.093Z,1024.22
2023-01-22T12:54:58.966Z,1024.18
2023-01-22T13:01:18.987Z,1024.16
2023-01-22T13:07:42.227Z,1024.2
2023-01-22T13:14:13.794Z,1024.2
2023-01-22T13:20:25.050Z,1024.18
2023-01-22T13:26:45.121Z,1024.18
2023-01-22T13:33:08.123Z,1024.2
2023-01-22T13:39:28.000Z,1024.2
2023-01-22T13:45:51.264Z,1024.16
2023-01-22T13:52:10.976Z,1024.24
2023-01-22T14:14:05.145Z,1024.34
2023-01-22T14:20:28.028Z,1024.4
2023-01-22T14:26:48.065Z,1024.42
2023-01-22T14:33:11.278Z,1024.5
2023-01-22T14:39:31.093Z,1024.58
2023-01-22T14:45:53.998Z,1024.63
2023-01-22T14:52:14.107Z,1024.71
2023-01-22T14:58:37.310Z,1024.77
2023-01-22T15:04:57.030Z,1024.81
2023-01-22T15:11:20.112Z,1024.87
2023-01-22T15:17:39.997Z,1024.97
2023-01-22T15:24:03.041Z,1025.01
2023-01-22T15:30:23.152Z,1025.06
2023-01-22T15:36:46.207Z,1025.08
2023-01-22T15:43:06.014Z,1025.1
2023-01-22T15:49:29.159Z,1025.08
2023-01-22T15:55:49.030Z,1025.1
2023-01-22T16:02:12.051Z,1025.14
2023-01-22T16:08:32.098Z,1025.16
2023-01-22T16:14:55.087Z,1025.24
2023-01-22T16:21:14.979Z,1025.26
2023-01-22T16:27:43.963Z,1025.26
2023-01-22T16:33:58.128Z,1025.28
2023-01-22T16:40:21.074Z,1025.26
2023-01-22T16:46:41.089Z,1025.3
2023-01-22T16:53:04.104Z,1025.3
2023-01-22T16:59:23.991Z,1025.32
2023-01-22T17:05:47.008Z,1025.38
2023-01-22T17:12:07.154Z,1025.38
2023-01-22T17:18:30.037Z,1025.38
2023-01-22T17:24:50.002Z,1025.38
2023-01-22T17:31:13.278Z,1025.4
2023-01-22T17:37:33.019Z,1025.36
2023-01-22T17:43:56.002Z,1025.4
2023-01-22T17:50:16.095Z,1025.46
2023-01-22T17:56:39.005Z,1025.52
2023-01-22T18:02:59.011Z,1025.55
2023-01-22T18:09:22.173Z,1025.61
2023-01-22T18:15:42.012Z,1025.65
2023-01-22T18:22:05.022Z,1025.71
2023-01-22T18:28:25.105Z,1025.79
2023-01-22T18:34:47.978Z,1025.85
2023-01-22T18:41:08.119Z,1025.91
2023-01-22T19:04:50.078Z,1026.11
2023-01-22T19:11:12.977Z,1026.15
2023-01-22T19:17:32.996Z,1026.19
2023-01-22T19:23:56.101Z,1026.27
2023-01-22T19:30:15.988Z,1026.29
2023-01-22T19:36:39.005Z,1026.31
2023-01-22T19:42:59.144Z,1026.35
2023-01-22T19:49:22.002Z,1026.37
2023-01-22T19:55:42.032Z,1026.43
2023-01-22T20:02:05.166Z,1026.5
2023-01-22T20:08:25.045Z,1026.62
2023-01-22T20:14:48.028Z,1026.68
2023-01-22T20:21:08.099Z,1026.74
2023-01-22T20:27:31.008Z,1026.8
2023-01-22T20:33:51.083Z,1026.82
2023-01-22T20:40:14.118Z,1026.84
2023-01-22T20:46:34.021Z,1026.84
2023-01-22T20:52:56.984Z,1026.87
2023-01-22T20:59:17.428Z,1026.91
2023-01-22T21:05:39.998Z,1026.91
2023-01-22T21:12:00.072Z,1026.93
2023-01-22T21:18:23.152Z,1026.95
2023-01-22T21:24:43.001Z,1026.93
2023-01-22T21:31:06.112Z,1026.93
2023-01-22T21:37:26.133Z,1026.91
2023-01-22T21:43:48.993Z,1026.91
2023-01-22T21:50:09.011Z,1026.89
2023-01-22T21:56:32.177Z,1026.87
2023-01-22T22:02:52.037Z,1026.87
2023-01-22T22:09:15.010Z,1026.89
2023-01-22T22:15:35.120Z,1026.82
2023-01-22T22:21:57.989Z,1026.84
2023-01-22T22:28:18.013Z,1026.84
2023-01-22T22:34:41.149Z,1026.82
2023-01-22T22:41:00.984Z,1026.85
2023-01-22T22:47:24.029Z,1026.89
2023-01-22T22:53:44.162Z,1026.91
2023-01-22T23:00:07.021Z,1026.97
2023-01-22T23:23:04.111Z,1027.17
2023-01-22T23:29:24.052Z,1027.21
2023-01-22T23:35:46.979Z,1027.21
2023-01-22T23:42:07.180Z,1027.25
2023-01-22T23:48:30.079Z,1027.27
2023-01-22T23:54:49.985Z,1027.23
